首页
METAR-TAF:

METAR-TAF

机场 :

巴兰基亚, 哥伦比亚

纬度: 10-53N, 经度: 074-47W, 海拔: 14米

当前天气观测

该预报发布于11分钟前的01:00 UTC
风速4节,风向北转西北,在西北之间变化
温度 27°C
湿度 89%
气压 1012 hPa
能见度10公里或以上
少量云层高于1300英尺
多云层高于20000英尺

METAR: SKBQ 150100Z 34004KT 310V010 9999 FEW013 BKN200 27/25 A2987 NOSIG

时间: 20:11 (01:11 UTC)

预报

该预报发布于2小时和41分钟前的22:30 UTC
预报有效从15日的 00点(UTC)到 15日的 24点(UTC)
风速4节,风向西
能见度10公里或以上
散云层高于1500英尺
散云层高于8000英尺
短暂存在
从 15日的 00点(UTC)到 15日的 02点(UTC)
散云层高于1200英尺
多云层高于7000英尺
短暂存在
从 15日的 08点(UTC)到 15日的 10点(UTC)
多云层高于1000英尺
多云层高于7000英尺
几率 40% :
短暂存在
从 15日的 11点(UTC)到 15日的 13点(UTC)
能見度: 4000
多云层高于1000英尺
散云层高于7000英尺
毛毛雨, 轻雾
成为
从 15日的 16点(UTC)到 15日的 18点(UTC)
风速10节,风向南转西南
短暂存在
从 15日的 20点(UTC)到 15日的 22点(UTC)
散云层高于1200英尺, 积雨云.
散云层高于7000英尺
雷暴, 雨

TAF: SKBQ 142230Z 1500/1524 27004KT 9999 SCT015 SCT080 TEMPO 1500/1502 RA SCT012 BKN070 TEMPO 1508/1510 RA BKN010 BKN070 PROB40 TEMPO 1511/1513 4000 DZ BR BKN010 SCT070 BECMG 1516/1518 21010KT TEMPO 1520/1522 TSRA SCT012CB SCT070 TX31/1517Z TN24/1508Z

超过4000个机场的气象观测和天气预报(METAR&TAF报告)。

可查询的气象台以黄色和红色小点在地图上表示。

将鼠标移到小点上方,可查看气象台名称。

然后点击查看天气观测和预报。

如需切换地图:点击带黑十字的绿色按钮放大地图;点击带横线的绿色按钮缩小地图;或者点击绿色箭头查看邻近地区的地图。


METAR-TAF: